Главная страница
METAR-TAF:

METAR-TAF

Аэропорты :

Эль-Камышлы, Сирия

широта: 37-03N, долгота: 041-13E, высота над уровнем моря: 455 м

Текущие метеонаблюдения

Эта сводка был подготовлена 2 часа и 40 минут назад, в 00:00 UTC
Ветер 4 Узел от северно-северо-западный
Температура 15°C
Влажность 44%
Давление 1017 hPa
Видимость 10 км и более
Нет облачности ниже 1500 м, и нет кучево-дождевой облачности

METAR: OSKL 230000Z 34004KT CAVOK 15/03 Q1017

Время: 05:40 (02:40 UTC)


TAF: отсутствует

Метеонаблюдения и прогнозы для более 4000 аэропортов (сводки METAR и TAF).

Имеющиеся станции представлены на карте желтыми и красными точками.

Чтобы увидеть название станции, наведите на нее мышь.

Затем щелкните, чтобы увидеть метеонаблюдения и метеопрогнозы.

Управление картой: чтобы увеличить масштаб, щелкните зеленые кнопки с черным крестиком; чтобы уменьшить масштаб, щелкните зеленую кнопку с тире; для просмотра соседних карт щелкайте зеленые стрелки.


METAR-TAF: